ENAN/ANX METAR and TAF weather

Enter ICAO airport designator
Station Type Date Time Source
ENAN METAR 2021/10/20 05:50 UTC NOAA

ENAN 200550Z 11028KT 9999 FEW025 BKN061 01/M04 Q0992


Station Type Date Time Source
ENAN Decoded METAR 2021/10/20 05:50 UTC NOAA

Andoya, Norway (ENAN) 69-18N 016-09E 14M
Oct 20, 2021 - 01:50 AM EDT / 2021.10.20 0550 UTC
Wind: from the ESE (110 degrees) at 32 MPH (28 KT):0
Visibility: greater than 7 mile(s):0
Sky conditions: mostly cloudy
Temperature: 33 F (1 C)
Windchill: 19 F (-7 C):1
Dew Point: 24 F (-4 C)
Relative Humidity: 69%
Pressure (altimeter): 29.29 in. Hg (0992 hPa)
ob: ENAN 200550Z 11028KT 9999 FEW025 BKN061 01/M04 Q0992
cycle: 6

Station Type Date Time Source
ENAN TAF 2021/10/20 06:57 UTC NOAA

TAF TAF ENAN 200500Z 2006/2106 10025KT 9999 FEW020 BKN080
TEMPO 2006/2106 4000 -SNRA

Example: see airport list